Lincoln, WA (99147)

5:20 AM PDT on July 24, 2014 (GMT -0700)
Davenport, WA (KWADAVEN3) Elev 2375 ft | 47.65 °N, 118.15 °W | Change Station

Current weather conditions updated 6 minutes ago

Clear
Clear
43.2 °F
Feels Like 42 °F
N
3.2
Wind Variable Wind from SW

Today is forecast to be Much Cooler than yesterday.

Today
High -- | Low -- °F
--% Chance of Precip.
Yesterday
High -- | Low -- °F
Precip. -- in
5:20 AM 8:39 PM
Waning Crescent, 5% visible
Pressure 30.09 in
Visibility 10.0 miles
Clouds Clear
Windchill 42 °F
Dew Point 41 °F
Humidity 93%
Rainfall 0.00 in
Snow Depth Not available.
UV 0 out of 12
Pollen 5.70 out of 12
Air Quality Not available.
Flu Activity Not available.
METAR KSKA 241158Z AUTO 18011KT 10SM CLR 09/07 A3009 RMK AO2 SLP190 70009 T00870065 10141 20087 52008

More Conditions Fewer Conditions

Pressure 30.09 in
Visibility 10.0 miles
Clouds Clear
Windchill 42 °F
Dew Point 41 °F
Humidity 93%
Rainfall 0.00 in
Snow Depth Not available.
UV 0 out of 12
Pollen 5.70 out of 12
Air Quality Not available.
Flu Activity Not available.
METAR KSKA 241158Z AUTO 18011KT 10SM CLR 09/07 A3009 RMK AO2 SLP190 70009 T00870065 10141 20087 52008

More Conditions Fewer Conditions

10-Day Weather Forecast

Almanac

Astronomy

Jul. 24, 2014 Rise Set
Actual Time 5:20 AM PDT 8:39 PM PDT
Civil Twilight 4:43 AM PDT 9:16 PM PDT
Nautical Twilight 3:53 AM PDT 10:05 PM PDT
Astronomical Twilight 2:50 AM PDT 11:08 PM PDT
Moon 3:34 AM PDT 6:55 PM PDT
Length of Visible Light 16h 33m
Length of Day
15h 18m
Tomorrow will be 2m 23s shorter.
Waning Crescent, 5% of the Moon is Illuminated
Today
Waning Crescent
Jul 26
New
Aug 3
First Quarter
Aug 10
Full
Aug 17
Last Quarter

Today's Extremes

State Highs State Lows

Community

WunderPhotos

Upload Photos

1,736,988 photos uploaded!

Nearby

Snow Depth

Station Depth Elevation
Moses Mountain 1 in 5300 ft
Quartz Peak 2 in 4700 ft
Sentinel Butte 0 in 4920 ft
Bunchgrass Meadow 0 in 5000 ft
Trough 0 in 5300 ft

Earthquake Activity

City Distance Mag. Time & Date
No recent earthquake activity has been reported nearby.
Minimum magnitude displayed is 2.5.

Coastal Water Temperatures

Place Temperature
No Stations Reporting

Nearby Weather Stations

Station Location Temp. Windchill Dew Point Humidity Wind Precip. Elev Updated Type
Davenport, WA, Davenport, WA 43.2 °F 42 °F 41 °F 93% SW  at  3.2 mph - / hr 2375 ft 5:13 AM PDT Normal
RAWS MIDNITE MINE WA, Wellpinit, WA 46 °F 46 °F 42 °F 85% North  at  0 mph 0.00 in / hr 2884 ft 4:39 AM PDT MADIS
Seven Bays, Seven Bays, WA 51.4 °F - 45 °F 79% East  at  0.0 mph 0.00 in / hr 1332 ft 5:17 AM PDT Rapid Fire
3 miles ESE of Grand Coulee Dam, in Linc, Grand Coulee, WA 51.4 °F - 41 °F 68% SE  at  7.0 mph 0.00 in / hr 1575 ft 5:14 AM PDT Normal
RAWS SPRING CANYON WA, Coulee Dam, WA 54 °F - 43 °F 66% South  at  12 mph 0.00 in / hr 1339 ft 4:37 AM PDT MADIS

Show More Stations Show Fewer Stations